createdAt,value
2018-06-02T00:01:20.795Z,955.41
2018-06-02T00:03:47.088Z,955.37
2018-06-02T00:06:13.381Z,955.34
2018-06-02T00:08:39.735Z,955.42
2018-06-02T00:11:06.076Z,955.37
2018-06-02T00:13:32.320Z,955.35
2018-06-02T00:15:58.618Z,955.33
2018-06-02T00:18:24.921Z,955.36
2018-06-02T00:20:51.203Z,955.35
2018-06-02T00:23:17.497Z,955.32
2018-06-02T00:25:43.794Z,955.38
2018-06-02T00:28:10.084Z,955.40
2018-06-02T00:30:36.380Z,955.38
2018-06-02T00:33:02.712Z,955.39
2018-06-02T00:35:29.035Z,955.35
2018-06-02T00:37:55.342Z,955.34
2018-06-02T00:40:21.669Z,955.41
2018-06-02T00:42:48.005Z,955.42
2018-06-02T00:45:16.278Z,955.40
2018-06-02T00:47:40.773Z,955.35
2018-06-02T00:50:07.067Z,955.37
2018-06-02T00:52:33.372Z,955.37
2018-06-02T00:54:59.664Z,955.38
2018-06-02T00:57:25.960Z,955.37
2018-06-02T00:59:52.253Z,955.42
2018-06-02T01:02:18.582Z,955.34
2018-06-02T01:04:44.885Z,955.31
2018-06-02T01:07:11.186Z,955.33
2018-06-02T01:09:37.477Z,955.40
2018-06-02T01:12:03.767Z,955.41
2018-06-02T01:14:30.056Z,955.36
2018-06-02T01:16:56.409Z,955.43
2018-06-02T01:19:22.702Z,955.42
2018-06-02T01:21:48.997Z,955.49
2018-06-02T01:24:15.285Z,955.48
2018-06-02T01:26:41.582Z,955.42
2018-06-02T01:29:07.884Z,955.37
2018-06-02T01:31:34.170Z,955.38
2018-06-02T01:34:00.464Z,955.43
2018-06-02T01:36:26.784Z,955.41
2018-06-02T01:38:53.071Z,955.46
2018-06-02T01:41:19.360Z,955.48
2018-06-02T01:43:45.665Z,955.43
2018-06-02T01:46:11.960Z,955.39
2018-06-02T01:48:38.260Z,955.41
2018-06-02T01:51:04.554Z,955.53
2018-06-02T01:53:30.841Z,955.48
2018-06-02T01:55:57.137Z,955.41
2018-06-02T01:58:23.436Z,955.56
2018-06-02T02:00:49.736Z,955.54
2018-06-02T02:03:16.044Z,955.52
2018-06-02T02:05:42.374Z,955.58
2018-06-02T02:08:08.665Z,955.47
2018-06-02T02:10:34.961Z,955.51
2018-06-02T02:13:01.263Z,955.54
2018-06-02T02:15:27.597Z,955.54
2018-06-02T02:17:53.889Z,955.54
2018-06-02T02:20:20.187Z,955.48
2018-06-02T02:22:46.479Z,955.47
2018-06-02T02:25:12.771Z,955.44
2018-06-02T02:27:39.054Z,955.48
2018-06-02T02:30:05.343Z,955.43
2018-06-02T02:32:31.628Z,955.47
2018-06-02T02:34:57.969Z,955.48
2018-06-02T02:37:24.260Z,955.49
2018-06-02T02:39:50.551Z,955.54
2018-06-02T02:42:16.866Z,955.45
2018-06-02T02:44:43.158Z,955.45
2018-06-02T02:47:09.448Z,955.47
2018-06-02T02:49:35.769Z,955.49
2018-06-02T02:52:02.070Z,955.50
2018-06-02T02:54:28.368Z,955.58
2018-06-02T02:56:54.664Z,955.57
2018-06-02T02:59:20.962Z,955.62
2018-06-02T03:01:47.400Z,955.55
2018-06-02T03:04:13.697Z,955.61
2018-06-02T03:06:40.014Z,955.60
2018-06-02T03:09:06.317Z,955.64
2018-06-02T03:11:32.607Z,955.63
2018-06-02T03:13:58.913Z,955.67
2018-06-02T03:16:25.211Z,955.61
2018-06-02T03:18:51.506Z,955.66
2018-06-02T03:21:17.801Z,955.69
2018-06-02T03:23:44.090Z,955.69
2018-06-02T03:26:10.428Z,955.70
2018-06-02T03:28:36.719Z,955.71
2018-06-02T03:31:03.020Z,955.62
2018-06-02T03:33:29.308Z,955.67
2018-06-02T03:35:55.604Z,955.65
2018-06-02T03:38:21.896Z,955.68
2018-06-02T03:40:48.180Z,955.64
2018-06-02T03:43:14.467Z,955.67
2018-06-02T03:45:40.800Z,955.70
2018-06-02T03:48:07.093Z,955.68
2018-06-02T03:50:33.378Z,955.67
2018-06-02T03:52:59.667Z,955.66
2018-06-02T03:55:25.963Z,955.66
2018-06-02T03:57:52.257Z,955.70
2018-06-02T04:00:18.544Z,955.67
2018-06-02T04:02:44.831Z,955.70
2018-06-02T04:05:11.136Z,955.76
2018-06-02T04:07:37.423Z,955.80
2018-06-02T04:10:03.727Z,955.76
2018-06-02T04:12:30.021Z,955.75
2018-06-02T04:14:56.317Z,955.79
2018-06-02T04:17:22.609Z,955.73
2018-06-02T04:19:48.943Z,955.80
2018-06-02T04:22:15.240Z,955.78
2018-06-02T04:24:41.576Z,955.73
2018-06-02T04:27:07.870Z,955.80
2018-06-02T04:29:34.211Z,955.74
2018-06-02T04:32:00.500Z,955.74
2018-06-02T04:34:26.820Z,955.76
2018-06-02T04:36:53.122Z,955.73
2018-06-02T04:39:19.464Z,955.73
2018-06-02T04:41:45.752Z,955.70
2018-06-02T04:44:12.087Z,955.75
2018-06-02T04:46:38.376Z,955.74
2018-06-02T04:49:04.668Z,955.80
2018-06-02T04:51:31.008Z,955.79
2018-06-02T04:53:57.300Z,955.80
2018-06-02T04:56:23.598Z,955.72
2018-06-02T04:58:49.886Z,955.73
2018-06-02T05:01:16.233Z,955.75
2018-06-02T05:03:42.528Z,955.73
2018-06-02T05:06:08.820Z,955.76
2018-06-02T05:08:35.125Z,955.72
2018-06-02T05:11:01.460Z,955.75
2018-06-02T05:13:27.748Z,955.79
2018-06-02T05:15:54.048Z,955.77
2018-06-02T05:18:20.336Z,955.79
2018-06-02T05:20:46.625Z,955.79
2018-06-02T05:23:12.925Z,955.78
2018-06-02T05:25:39.252Z,955.82
2018-06-02T05:28:05.601Z,955.82
2018-06-02T05:30:31.902Z,955.88
2018-06-02T05:32:58.202Z,955.77
2018-06-02T05:35:24.538Z,955.82
2018-06-02T05:37:50.808Z,955.77
2018-06-02T05:40:17.101Z,955.86
2018-06-02T05:42:43.408Z,955.84
2018-06-02T05:45:09.702Z,955.82
2018-06-02T05:47:35.996Z,955.84
2018-06-02T05:50:02.283Z,955.80
2018-06-02T05:52:28.572Z,955.83
2018-06-02T05:54:54.860Z,955.85
2018-06-02T05:57:21.149Z,955.85
2018-06-02T05:59:47.458Z,955.89
2018-06-02T06:02:13.753Z,955.91
2018-06-02T06:04:40.045Z,955.86
2018-06-02T06:07:06.345Z,955.83
2018-06-02T06:09:32.639Z,955.71
2018-06-02T06:11:58.945Z,955.87
2018-06-02T06:14:25.242Z,955.84
2018-06-02T06:16:51.530Z,955.85
2018-06-02T06:19:17.825Z,955.91
2018-06-02T06:21:44.129Z,955.87
2018-06-02T06:24:10.414Z,955.87
2018-06-02T06:26:36.704Z,955.76
2018-06-02T06:29:03.045Z,955.74
2018-06-02T06:31:29.327Z,955.76
2018-06-02T06:33:55.615Z,955.78
2018-06-02T06:36:21.914Z,955.84
2018-06-02T06:38:48.206Z,955.82
2018-06-02T06:41:14.499Z,955.76
2018-06-02T06:43:40.802Z,955.78
2018-06-02T06:46:07.100Z,955.78
2018-06-02T06:48:33.398Z,955.73
2018-06-02T06:50:59.689Z,955.77
2018-06-02T06:53:26.003Z,955.67
2018-06-02T06:55:52.299Z,955.70
2018-06-02T06:58:18.590Z,955.66
2018-06-02T07:00:44.884Z,955.69
2018-06-02T07:03:11.201Z,955.70
2018-06-02T07:05:37.493Z,955.62
2018-06-02T07:08:03.790Z,955.67
2018-06-02T07:10:30.079Z,955.60
2018-06-02T07:12:56.375Z,955.59
2018-06-02T07:15:22.670Z,955.57
2018-06-02T07:17:49.000Z,955.59
2018-06-02T07:20:15.272Z,955.61
2018-06-02T07:22:41.571Z,955.60
2018-06-02T07:25:07.856Z,955.55
2018-06-02T07:27:34.197Z,955.56
2018-06-02T07:30:00.493Z,955.60
2018-06-02T07:32:26.788Z,955.54
2018-06-02T07:34:53.085Z,955.54
2018-06-02T07:37:19.388Z,955.55
2018-06-02T07:39:45.674Z,955.55
2018-06-02T07:42:11.970Z,955.48
2018-06-02T07:44:38.305Z,955.50
2018-06-02T07:47:04.595Z,955.51
2018-06-02T07:49:30.895Z,955.53
2018-06-02T07:51:57.187Z,955.45
2018-06-02T07:54:23.481Z,955.51
2018-06-02T07:56:49.771Z,955.43
2018-06-02T07:59:16.109Z,955.47
2018-06-02T08:01:42.404Z,955.39
2018-06-02T08:04:08.697Z,955.34
2018-06-02T08:06:34.985Z,955.35
2018-06-02T08:09:01.348Z,955.32
2018-06-02T08:11:27.699Z,955.32
2018-06-02T08:13:53.992Z,955.36
2018-06-02T08:16:20.292Z,955.32
2018-06-02T08:18:46.591Z,955.26
2018-06-02T08:21:12.935Z,955.29
2018-06-02T08:23:39.227Z,955.21
2018-06-02T08:26:05.518Z,955.25
2018-06-02T08:28:31.815Z,955.18
2018-06-02T08:30:58.119Z,955.19
2018-06-02T08:33:24.482Z,955.19
2018-06-02T08:35:50.840Z,955.17
2018-06-02T08:38:17.223Z,955.15
2018-06-02T08:40:43.537Z,955.14
2018-06-02T08:43:09.835Z,955.16
2018-06-02T08:45:36.129Z,955.12
2018-06-02T08:48:02.424Z,955.08
2018-06-02T08:50:28.721Z,955.06
2018-06-02T08:52:55.023Z,955.03
2018-06-02T08:55:21.333Z,955.00
2018-06-02T08:57:47.615Z,955.05
2018-06-02T09:00:13.919Z,955.03
2018-06-02T09:02:40.210Z,954.96
2018-06-02T09:05:06.781Z,954.98
2018-06-02T09:07:33.069Z,954.96
2018-06-02T09:09:59.355Z,954.92
2018-06-02T09:12:28.637Z,954.86
2018-06-02T09:14:54.907Z,954.86
2018-06-02T09:17:21.243Z,954.85
2018-06-02T09:19:47.535Z,954.79
2018-06-02T09:22:13.827Z,954.83
2018-06-02T09:24:40.121Z,954.76
2018-06-02T09:27:06.452Z,954.84
2018-06-02T09:29:32.745Z,954.79
2018-06-02T09:32:04.953Z,954.87
2018-06-02T09:34:31.223Z,954.84
2018-06-02T09:36:57.512Z,954.73
2018-06-02T09:39:23.851Z,954.73
2018-06-02T09:41:50.170Z,954.69
2018-06-02T09:44:16.461Z,954.64
2018-06-02T09:46:42.755Z,954.57
2018-06-02T09:49:09.050Z,954.64
2018-06-02T09:51:43.365Z,954.59
2018-06-02T09:54:04.916Z,954.53
2018-06-02T09:56:31.291Z,954.48
2018-06-02T09:58:57.674Z,954.49
2018-06-02T10:01:24.059Z,954.47
2018-06-02T10:03:50.436Z,954.52
2018-06-02T10:06:16.775Z,954.46
2018-06-02T10:08:43.231Z,954.47
2018-06-02T10:11:09.513Z,954.38
2018-06-02T10:13:35.761Z,954.37
2018-06-02T10:16:02.088Z,954.41
2018-06-02T10:18:28.387Z,954.35
2018-06-02T10:20:54.698Z,954.31
2018-06-02T10:23:21.014Z,954.30
2018-06-02T10:25:47.317Z,954.29
2018-06-02T10:28:13.694Z,954.24
2018-06-02T10:30:39.947Z,954.24
2018-06-02T10:33:09.853Z,954.18
2018-06-02T10:35:34.773Z,954.16
2018-06-02T10:38:01.056Z,954.10
2018-06-02T10:40:27.358Z,954.13
2018-06-02T10:42:53.775Z,954.10
2018-06-02T10:45:20.109Z,954.10
2018-06-02T10:47:46.403Z,954.07
2018-06-02T10:50:18.414Z,953.99
2018-06-02T10:52:44.716Z,953.91
2018-06-02T10:55:11.006Z,953.94
2018-06-02T10:57:37.296Z,953.88
2018-06-02T11:00:07.262Z,953.93
2018-06-02T11:02:33.556Z,953.89
2018-06-02T11:04:59.858Z,953.85
2018-06-02T11:07:26.161Z,953.76
2018-06-02T11:09:52.455Z,953.72
2018-06-02T11:12:18.754Z,953.73
2018-06-02T11:14:45.055Z,953.65
2018-06-02T11:17:11.359Z,953.73
2018-06-02T11:19:37.711Z,953.68
2018-06-02T11:22:03.947Z,953.54
2018-06-02T11:24:30.241Z,953.62
2018-06-02T11:26:56.540Z,953.61
2018-06-02T11:29:22.838Z,953.54
2018-06-02T11:31:49.134Z,953.51
2018-06-02T11:34:15.448Z,953.51
2018-06-02T11:36:41.741Z,953.48
2018-06-02T11:39:08.028Z,953.48
2018-06-02T11:41:34.328Z,953.50
2018-06-02T11:44:00.684Z,953.39
2018-06-02T11:46:26.999Z,953.38
2018-06-02T11:48:53.282Z,953.43
2018-06-02T11:51:19.580Z,953.27
2018-06-02T11:53:45.937Z,953.22
2018-06-02T11:56:12.266Z,953.18
2018-06-02T11:58:38.532Z,953.15
2018-06-02T12:01:04.875Z,953.12
2018-06-02T12:03:31.118Z,953.10
2018-06-02T12:05:57.410Z,953.16
2018-06-02T12:08:23.711Z,953.08
2018-06-02T12:10:50.000Z,953.06
2018-06-02T12:13:16.297Z,953.06
2018-06-02T12:15:42.590Z,953.01
2018-06-02T12:18:08.901Z,953.05
2018-06-02T12:20:35.194Z,953.04
2018-06-02T12:23:01.494Z,953.06
2018-06-02T12:25:27.789Z,952.97
2018-06-02T12:27:54.085Z,952.96
2018-06-02T12:30:20.425Z,952.92
2018-06-02T12:32:46.719Z,952.86
2018-06-02T12:35:13.049Z,952.94
2018-06-02T12:37:39.342Z,952.88
2018-06-02T12:40:05.630Z,952.93
2018-06-02T12:42:33.089Z,952.81
2018-06-02T12:44:58.274Z,952.86
2018-06-02T12:47:24.559Z,952.84
2018-06-02T12:49:50.897Z,952.85
2018-06-02T12:52:17.223Z,952.88
2018-06-02T12:54:43.515Z,952.82
2018-06-02T12:57:09.819Z,952.75
2018-06-02T12:59:36.119Z,952.78
2018-06-02T13:02:02.417Z,952.63
2018-06-02T13:04:28.762Z,952.67
2018-06-02T13:06:55.064Z,952.73
2018-06-02T13:09:21.397Z,952.69
2018-06-02T13:11:47.684Z,952.72
2018-06-02T13:14:14.031Z,952.56
2018-06-02T13:16:40.338Z,952.51
2018-06-02T13:19:06.632Z,952.49
2018-06-02T13:21:32.936Z,952.53
2018-06-02T13:23:59.229Z,952.57
2018-06-02T13:26:25.874Z,952.59
2018-06-02T13:28:57.408Z,952.59
2018-06-02T13:31:25.682Z,952.61
2018-06-02T13:33:51.977Z,952.64
2018-06-02T13:36:18.273Z,952.68
2018-06-02T13:38:44.581Z,952.73
2018-06-02T13:41:10.869Z,952.68
2018-06-02T13:43:39.303Z,952.84
2018-06-02T13:46:05.562Z,952.71
2018-06-02T13:48:31.831Z,952.74
2018-06-02T13:50:58.130Z,952.66
2018-06-02T13:53:24.434Z,952.83
2018-06-02T13:55:50.734Z,952.71
2018-06-02T13:58:19.788Z,952.66
2018-06-02T14:00:46.188Z,952.87
2018-06-02T14:03:12.495Z,952.59
2018-06-02T14:05:39.214Z,952.59
2018-06-02T14:08:08.411Z,952.66
2018-06-02T14:10:32.336Z,952.65
2018-06-02T14:12:58.949Z,952.57
2018-06-02T14:15:32.062Z,952.56
2018-06-02T14:18:04.078Z,952.60
2018-06-02T14:20:29.171Z,952.46
2018-06-02T14:22:55.468Z,952.44
2018-06-02T14:25:21.799Z,952.49
2018-06-02T14:27:48.072Z,952.51
2018-06-02T14:30:14.406Z,952.48
2018-06-02T14:32:40.708Z,952.60
2018-06-02T14:35:08.899Z,952.46
2018-06-02T14:37:46.092Z,952.61
2018-06-02T14:40:11.074Z,952.52
2018-06-02T14:42:37.371Z,952.50
2018-06-02T14:45:03.674Z,952.54
2018-06-02T14:47:30.014Z,952.56
2018-06-02T14:49:56.306Z,952.59
2018-06-02T14:52:22.615Z,952.42
2018-06-02T14:54:48.909Z,952.29
2018-06-02T14:57:15.197Z,952.36
2018-06-02T14:59:41.488Z,952.38
2018-06-02T15:02:08.003Z,952.50
2018-06-02T15:04:34.300Z,952.52
2018-06-02T15:07:00.629Z,952.59
2018-06-02T15:09:26.926Z,952.55
2018-06-02T15:11:53.292Z,952.47
2018-06-02T15:14:19.624Z,952.46
2018-06-02T15:16:45.916Z,952.43
2018-06-02T15:19:12.231Z,952.42
2018-06-02T15:21:38.534Z,952.45
2018-06-02T15:24:04.863Z,952.66
2018-06-02T15:26:31.178Z,952.73
2018-06-02T15:28:57.483Z,952.82
2018-06-02T15:31:23.896Z,952.92
2018-06-02T15:33:50.121Z,952.96
2018-06-02T15:36:16.419Z,953.16
2018-06-02T15:38:42.706Z,953.20
2018-06-02T15:41:09.006Z,953.29
2018-06-02T15:43:35.296Z,953.40
2018-06-02T15:46:01.588Z,953.55
2018-06-02T15:48:27.880Z,953.45
2018-06-02T15:50:54.176Z,953.41
2018-06-02T15:53:20.474Z,953.49
2018-06-02T15:55:46.807Z,953.51
2018-06-02T15:58:13.097Z,953.73
2018-06-02T16:00:39.395Z,953.94
2018-06-02T16:03:05.728Z,954.16
2018-06-02T16:05:32.138Z,954.22
2018-06-02T16:07:58.430Z,954.19
2018-06-02T16:10:24.724Z,954.21
2018-06-02T16:12:51.107Z,954.31
2018-06-02T16:15:17.387Z,954.32
2018-06-02T16:17:43.663Z,954.30
2018-06-02T16:20:10.006Z,954.31
2018-06-02T16:22:36.265Z,954.38
2018-06-02T16:25:02.583Z,954.43
2018-06-02T16:27:28.884Z,954.38
2018-06-02T16:29:55.220Z,954.31
2018-06-02T16:32:21.545Z,954.38
2018-06-02T16:34:47.869Z,954.29
2018-06-02T16:37:14.167Z,954.25
2018-06-02T16:39:40.479Z,954.23
2018-06-02T16:42:06.775Z,954.26
2018-06-02T16:44:33.077Z,954.23
2018-06-02T16:46:59.390Z,954.14
2018-06-02T16:49:25.687Z,954.27
2018-06-02T16:51:51.996Z,954.27
2018-06-02T16:54:18.285Z,954.40
2018-06-02T16:56:44.578Z,954.37
2018-06-02T16:59:10.875Z,954.41
2018-06-02T17:01:37.159Z,954.34
2018-06-02T17:04:03.459Z,954.29
2018-06-02T17:06:29.758Z,954.25
2018-06-02T17:08:56.047Z,954.24
2018-06-02T17:11:22.409Z,954.31
2018-06-02T17:13:48.707Z,954.27
2018-06-02T17:16:15.045Z,954.32
2018-06-02T17:18:41.344Z,954.29
2018-06-02T17:21:07.638Z,954.27
2018-06-02T17:23:33.971Z,954.25
2018-06-02T17:26:00.262Z,954.32
2018-06-02T17:28:26.561Z,954.23
2018-06-02T17:30:52.848Z,954.17
2018-06-02T17:33:19.140Z,954.20
2018-06-02T17:35:45.444Z,954.14
2018-06-02T17:38:11.769Z,954.12
2018-06-02T17:40:38.063Z,954.14
2018-06-02T17:43:04.383Z,954.07
2018-06-02T17:45:30.677Z,954.08
2018-06-02T17:47:56.969Z,954.12
2018-06-02T17:50:23.299Z,954.06
2018-06-02T17:52:49.621Z,954.04
2018-06-02T17:55:15.916Z,954.08
2018-06-02T17:57:42.228Z,954.11
2018-06-02T18:00:08.520Z,954.01
2018-06-02T18:02:34.827Z,954.07
2018-06-02T18:05:01.119Z,954.00
2018-06-02T18:07:27.413Z,954.02
2018-06-02T18:09:53.695Z,953.97
2018-06-02T18:12:20.035Z,953.93
2018-06-02T18:14:46.336Z,953.91
2018-06-02T18:17:12.625Z,953.83
2018-06-02T18:19:38.929Z,953.84
2018-06-02T18:22:05.224Z,953.77
2018-06-02T18:24:31.519Z,953.72
2018-06-02T18:26:57.855Z,953.70
2018-06-02T18:29:24.142Z,953.70
2018-06-02T18:31:50.437Z,953.72
2018-06-02T18:34:16.738Z,953.63
2018-06-02T18:36:43.952Z,953.63
2018-06-02T18:39:10.242Z,953.66
2018-06-02T18:41:36.581Z,953.66
2018-06-02T18:44:02.868Z,953.65
2018-06-02T18:46:29.155Z,953.68
2018-06-02T18:48:55.467Z,953.84
2018-06-02T18:51:21.771Z,953.88
2018-06-02T18:53:48.095Z,953.92
2018-06-02T18:56:14.361Z,954.05
2018-06-02T18:58:40.653Z,954.11
2018-06-02T19:01:06.993Z,954.11
2018-06-02T19:03:33.332Z,954.19
2018-06-02T19:05:59.601Z,954.23
2018-06-02T19:08:25.905Z,954.28
2018-06-02T19:10:52.275Z,954.28
2018-06-02T19:13:19.477Z,954.34
2018-06-02T19:15:44.985Z,954.38
2018-06-02T19:18:11.277Z,954.33
2018-06-02T19:20:37.581Z,954.35
2018-06-02T19:23:03.877Z,954.31
2018-06-02T19:25:30.163Z,954.33
2018-06-02T19:27:56.459Z,954.30
2018-06-02T19:30:22.783Z,954.28
2018-06-02T19:32:49.075Z,954.28
2018-06-02T19:35:15.375Z,954.24
2018-06-02T19:37:41.665Z,954.26
2018-06-02T19:40:07.962Z,954.32
2018-06-02T19:42:34.250Z,954.32
2018-06-02T19:45:00.543Z,954.33
2018-06-02T19:47:26.878Z,954.38
2018-06-02T19:49:53.205Z,954.48
2018-06-02T19:52:19.484Z,954.47
2018-06-02T19:54:45.772Z,954.34
2018-06-02T19:57:12.102Z,954.42
2018-06-02T19:59:38.387Z,954.41
2018-06-02T20:02:04.679Z,954.42
2018-06-02T20:04:30.970Z,954.42
2018-06-02T20:06:57.285Z,954.37
2018-06-02T20:09:23.580Z,954.26
2018-06-02T20:11:49.873Z,954.36
2018-06-02T20:14:16.193Z,954.32
2018-06-02T20:16:42.499Z,954.30
2018-06-02T20:19:08.921Z,954.26
2018-06-02T20:21:35.169Z,954.28
2018-06-02T20:24:01.470Z,954.32
2018-06-02T20:26:27.771Z,954.28
2018-06-02T20:28:54.059Z,954.24
2018-06-02T20:31:20.350Z,954.25
2018-06-02T20:33:46.717Z,954.23
2018-06-02T20:36:13.090Z,954.22
2018-06-02T20:38:39.335Z,954.10
2018-06-02T20:41:05.657Z,954.13
2018-06-02T20:43:32.010Z,954.09
2018-06-02T20:45:58.429Z,954.23
2018-06-02T20:48:24.733Z,954.25
2018-06-02T20:50:51.025Z,954.23
2018-06-02T20:53:17.393Z,954.22
2018-06-02T20:55:43.657Z,954.22
2018-06-02T20:58:09.963Z,954.20
2018-06-02T21:00:36.266Z,954.25
2018-06-02T21:03:02.558Z,954.23
2018-06-02T21:05:28.859Z,954.20
2018-06-02T21:07:55.207Z,954.18
2018-06-02T21:10:21.490Z,954.14
2018-06-02T21:12:47.798Z,954.20
2018-06-02T21:15:14.108Z,954.20
2018-06-02T21:17:40.440Z,954.21
2018-06-02T21:20:06.749Z,954.24
2018-06-02T21:22:33.132Z,954.27
2018-06-02T21:24:59.437Z,954.24
2018-06-02T21:27:25.753Z,954.25
2018-06-02T21:29:52.062Z,954.23
2018-06-02T21:32:18.383Z,954.27
2018-06-02T21:34:44.695Z,954.27
2018-06-02T21:37:11.010Z,954.36
2018-06-02T21:39:37.315Z,954.30
2018-06-02T21:42:03.663Z,954.34
2018-06-02T21:44:30.006Z,954.34
2018-06-02T21:46:56.332Z,954.42
2018-06-02T21:49:22.756Z,954.40
2018-06-02T21:51:49.093Z,954.34
2018-06-02T21:54:15.363Z,954.36
2018-06-02T21:56:41.672Z,954.39
2018-06-02T21:59:07.977Z,954.38
2018-06-02T22:01:34.328Z,954.30
2018-06-02T22:04:00.714Z,954.23
2018-06-02T22:06:26.981Z,954.29
2018-06-02T22:08:53.326Z,954.30
2018-06-02T22:11:19.621Z,954.35
2018-06-02T22:13:45.923Z,954.32
2018-06-02T22:16:12.229Z,954.37
2018-06-02T22:18:38.543Z,954.33
2018-06-02T22:21:04.924Z,954.36
2018-06-02T22:23:31.259Z,954.31
2018-06-02T22:25:57.610Z,954.33
2018-06-02T22:28:23.917Z,954.33
2018-06-02T22:30:50.298Z,954.29
2018-06-02T22:33:16.725Z,954.33
2018-06-02T22:35:43.091Z,954.29
2018-06-02T22:38:09.430Z,954.30
2018-06-02T22:40:35.762Z,954.31
2018-06-02T22:43:02.108Z,954.29
2018-06-02T22:45:28.445Z,954.30
2018-06-02T22:47:54.792Z,954.34
2018-06-02T22:50:21.100Z,954.31
2018-06-02T22:52:47.408Z,954.39
2018-06-02T22:55:13.717Z,954.37
2018-06-02T22:57:40.026Z,954.33
2018-06-02T23:00:06.362Z,954.36
2018-06-02T23:02:32.671Z,954.33
2018-06-02T23:04:59.017Z,954.35
2018-06-02T23:07:25.327Z,954.34
2018-06-02T23:09:51.635Z,954.31
2018-06-02T23:12:17.948Z,954.26
2018-06-02T23:14:44.259Z,954.22
2018-06-02T23:17:10.574Z,954.25
2018-06-02T23:19:36.886Z,954.20
2018-06-02T23:22:03.223Z,954.25
2018-06-02T23:24:29.531Z,954.28
2018-06-02T23:26:55.844Z,954.28
2018-06-02T23:29:22.155Z,954.22
2018-06-02T23:31:48.461Z,954.22
2018-06-02T23:34:14.766Z,954.23
2018-06-02T23:36:41.083Z,954.19
2018-06-02T23:39:07.387Z,954.16
2018-06-02T23:41:33.690Z,954.14
2018-06-02T23:43:59.989Z,954.15
2018-06-02T23:46:26.347Z,954.15
2018-06-02T23:48:52.653Z,954.16
2018-06-02T23:51:18.953Z,954.12
2018-06-02T23:53:45.261Z,954.14
2018-06-02T23:56:11.606Z,954.05
2018-06-02T23:58:37.909Z,954.01
